CYHY

Details ICAO CYHY (YHY)
Name HAY RIVER
Region Canada
Timezone America/Yellowknife (UTC-7.0)
Plans Departing 25
Arriving 19
Stats Elevation 543 ft / 166 m (AMSL)
Location 60.840621° -115.784243°
Runways 2
Magnetic Variation 16.957° E
Sunrise 2017-12-17 16:52:24 UTC / 2017-12-17 09:52:24 Local
Sunset 2017-12-17 22:29:09 UTC / 2017-12-17 15:29:09 Local
Advertisement - Login to hide

Runways

ID Width Length Bearing (true) Bearing (mag) Surface Threshold Offset Overrun Length
04 150 ft / 46 m 4,043 ft / 1,232 m 66.34° 49.38° Dirt 0 ft / 0 m 0 ft / 0 m
13 150 ft / 46 m 6,056 ft / 1,846 m 156.90° 139.94° Asphalt 0 ft / 0 m 0 ft / 0 m
22 150 ft / 46 m 4,043 ft / 1,232 m 246.36° 229.40° Dirt 0 ft / 0 m 0 ft / 0 m
31 150 ft / 46 m 6,056 ft / 1,846 m 336.92° 319.96° Asphalt 0 ft / 0 m 0 ft / 0 m

Map

Weather


0- 5 10 15 20 25 30 35+ Temperature / ° C

Clouds and Precipitation
Forecast for 2017-12-17 12:00 UTC. Updated an hour ago

Ground ~20,000 ft ~40,000 ft Winds

METAR

CYHY 170800Z 18012KT 15SM SCT100 M09/M11 A2920 RMK AC3 SLP906

TAF

TAF CYHY 170538Z 1706/1718 18012KT P6SM FEW020 BKN120 RMK NXT FCST BY 171200Z

Frequencies

Unicom 122.30 MHz MANDATORY FREQ
Approach 126.70 MHz YELLOWKNIFE RDO
Warning: Do not use this data for real-world aviation or navigation. No guarantee of current accuracy is given.